Time;durP1;ratioP1;P1;durP2;ratioP2;P2;SDS_P1;SDS_P2;PMS_P1;PMS_P2;Temp;Humidity;BMP_temperature;BMP_pressure;BME280_temperature;BME280_humidity;BME280_pressure;Samples;Min_cycle;Max_cycle;Signal;HPM_P1;HPM_P2
2021/08/22 00:00:09;;;;;;;11.00;9.70;;;;;;;20.39;75.19;100139.41;5037040;28;20483;-65
2021/08/22 00:02:37;;;;;;;9.35;8.40;;;;;;;20.39;74.54;100136.56;5036379;28;20056;-65
2021/08/22 00:05:05;;;;;;;9.13;8.23;;;;;;;20.20;75.83;100138.44;5023420;28;20066;-65
2021/08/22 00:07:32;;;;;;;11.70;10.30;;;;;;;20.31;75.89;100132.06;5016767;28;20057;-65
2021/08/22 00:10:00;;;;;;;11.20;8.70;;;;;;;20.36;75.58;100140.19;5031757;28;20068;-64
2021/08/22 00:12:29;;;;;;;11.43;9.80;;;;;;;20.39;75.47;100136.56;5036755;28;20049;-64
2021/08/22 00:14:56;;;;;;;9.05;8.15;;;;;;;20.35;75.09;100138.56;5036385;28;20076;-65
2021/08/22 00:17:23;;;;;;;12.40;8.48;;;;;;;20.32;75.39;100130.84;5035445;28;20494;-64
2021/08/22 00:19:51;;;;;;;12.50;8.70;;;;;;;20.33;75.63;100126.84;5035792;28;20068;-64
2021/08/22 00:22:18;;;;;;;9.68;8.52;;;;;;;20.32;75.87;100125.19;5036127;28;20053;-64
2021/08/22 00:24:46;;;;;;;10.70;8.23;;;;;;;20.32;75.75;100123.19;5035182;28;20049;-64
2021/08/22 00:27:13;;;;;;;8.95;7.43;;;;;;;20.37;75.62;100124.84;5036101;28;20061;-64
2021/08/22 00:29:42;;;;;;;10.60;8.05;;;;;;;20.41;75.07;100114.38;5035881;28;20049;-64
2021/08/22 00:32:09;;;;;;;10.02;7.82;;;;;;;20.42;75.01;100102.66;5035939;28;20072;-65
2021/08/22 00:34:36;;;;;;;7.60;6.88;;;;;;;20.45;74.99;100099.06;5035970;28;20058;-65
2021/08/22 00:37:04;;;;;;;9.75;7.57;;;;;;;20.46;74.93;100094.22;5035544;28;20053;-65
2021/08/22 00:39:32;;;;;;;9.32;8.30;;;;;;;20.42;75.11;100084.88;5035724;28;20049;-65
2021/08/22 00:42:00;;;;;;;8.38;7.57;;;;;;;20.42;75.72;100084.88;5035817;28;20057;-65
2021/08/22 00:44:27;;;;;;;8.85;7.90;;;;;;;20.41;75.87;100074.75;5035480;28;20380;-65
2021/08/22 00:46:57;;;;;;;9.35;8.30;;;;;;;20.42;75.55;100088.53;5036009;28;20064;-65
2021/08/22 00:49:25;;;;;;;10.25;7.93;;;;;;;20.38;75.49;100078.38;5035792;28;20405;-65
2021/08/22 00:51:52;;;;;;;8.85;7.95;;;;;;;20.37;75.90;100082.41;5035664;28;20064;-65
2021/08/22 00:54:20;;;;;;;8.57;7.70;;;;;;;20.37;75.96;100091.72;5035495;28;20053;-65
2021/08/22 00:56:47;;;;;;;8.35;7.45;;;;;;;20.36;75.94;100090.09;5035750;28;20068;-65
2021/08/22 00:59:17;;;;;;;9.20;8.30;;;;;;;20.40;76.30;100085.28;5035134;28;20498;-65
2021/08/22 01:01:48;;;;;;;9.10;8.05;;;;;;;20.42;76.36;100082.06;5035037;28;20053;-65
2021/08/22 01:04:20;;;;;;;9.20;8.30;;;;;;;20.44;76.08;100080.47;5029375;28;20057;-65
2021/08/22 01:06:59;;;;;;;8.13;7.30;;;;;;;20.45;75.95;100081.25;5015931;28;20069;-65
2021/08/22 01:09:28;;;;;;;;;;;;;;;20.42;75.64;100076.41;5034992;28;20483;-65
2021/08/22 01:11:59;;;;;;;8.13;7.18;;;;;;;20.47;75.54;100081.69;5035508;28;20358;-65
2021/08/22 01:14:32;;;;;;;9.23;7.28;;;;;;;20.51;74.99;100095.88;5035405;28;20053;-65
2021/08/22 01:17:02;;;;;;;7.97;6.78;;;;;;;20.46;74.57;100097.84;5034365;28;20057;-64
2021/08/22 01:19:43;;;;;;;6.47;5.88;;;;;;;20.40;74.36;100095.78;5025400;28;20065;-64
2021/08/22 01:22:11;;;;;;;9.25;6.07;;;;;;;20.30;74.96;100091.66;5034251;28;20057;-64
2021/08/22 01:24:41;;;;;;;8.13;6.57;;;;;;;20.38;75.20;100101.03;5035088;28;20045;-64
2021/08/22 01:27:10;;;;;;;8.35;6.45;;;;;;;20.26;75.14;100105.78;5034951;28;20050;-64
2021/08/22 01:29:43;;;;;;;9.02;6.45;;;;;;;20.19;75.73;100104.88;5034747;28;20057;-65
2021/08/22 01:32:13;;;;;;;8.25;7.40;;;;;;;20.19;76.74;100102.84;5034382;28;20049;-65
2021/08/22 01:34:43;;;;;;;8.55;7.32;;;;;;;20.14;77.54;100108.03;5035036;28;20045;-65
2021/08/22 01:37:11;;;;;;;8.85;6.70;;;;;;;20.15;77.31;100107.66;5034515;28;20053;-65
2021/08/22 01:39:41;;;;;;;8.30;7.20;;;;;;;20.22;77.05;100101.25;5034468;28;20053;-65
2021/08/22 01:42:10;;;;;;;8.10;6.85;;;;;;;20.24;77.30;100107.34;5034711;28;20054;-65
2021/08/22 01:44:39;;;;;;;7.77;6.53;;;;;;;20.18;77.18;100112.56;5034266;28;20372;-65
2021/08/22 01:47:08;;;;;;;9.77;7.53;;;;;;;20.21;77.51;100114.59;5034321;28;20061;-65
2021/08/22 01:49:36;;;;;;;7.80;6.60;;;;;;;20.12;77.16;100111.28;5034507;28;20061;-65
2021/08/22 01:52:07;;;;;;;6.88;6.18;;;;;;;20.21;76.13;100108.94;5034452;28;20057;-66
2021/08/22 01:54:37;;;;;;;6.97;6.28;;;;;;;20.19;76.23;100117.00;5033920;28;20055;-64
2021/08/22 01:57:05;;;;;;;7.82;6.15;;;;;;;20.16;76.25;100117.78;5034220;28;20049;-64
2021/08/22 01:59:36;;;;;;;7.18;5.43;;;;;;;20.06;76.24;100121.31;5034184;28;20057;-64
2021/08/22 02:02:04;;;;;;;6.80;5.75;;;;;;;19.97;76.41;100123.63;5034017;28;20502;-65
2021/08/22 02:04:37;;;;;;;6.30;5.70;;;;;;;19.93;76.81;100117.13;5033578;28;20053;-64
2021/08/22 02:07:12;;;;;;;7.93;5.38;;;;;;;19.86;76.88;100112.19;5034119;28;20498;-64
2021/08/22 02:09:46;;;;;;;5.97;5.13;;;;;;;19.92;76.54;100121.16;5034374;28;20060;-63
2021/08/22 02:12:17;;;;;;;7.68;5.75;;;;;;;19.96;76.70;100116.34;5034269;28;20054;-65
2021/08/22 02:14:57;;;;;;;9.05;5.70;;;;;;;19.95;76.52;100126.03;5033930;28;20394;-65
2021/08/22 02:17:27;;;;;;;5.57;5.00;;;;;;;19.95;76.68;100120.38;5033235;28;20045;-65
2021/08/22 02:19:56;;;;;;;6.90;5.30;;;;;;;19.93;76.69;100117.94;5033818;28;20060;-65
2021/08/22 02:22:25;;;;;;;6.00;5.40;;;;;;;19.91;76.92;100122.34;5033676;28;20053;-65
2021/08/22 02:24:54;;;;;;;6.90;5.22;;;;;;;19.91;76.14;100120.34;5033514;28;20050;-65
2021/08/22 02:27:22;;;;;;;7.18;5.57;;;;;;;19.95;76.40;100115.56;5034276;28;20053;-66
2021/08/22 02:29:52;;;;;;;6.40;4.90;;;;;;;19.97;76.57;100117.97;5033909;28;20053;-66
2021/08/22 02:32:19;;;;;;;7.43;5.90;;;;;;;19.98;76.67;100123.25;5034141;28;20072;-64
2021/08/22 02:34:47;;;;;;;8.40;5.80;;;;;;;20.00;76.82;100117.22;5033412;28;20049;-64
2021/08/22 02:37:14;;;;;;;6.55;5.55;;;;;;;20.00;76.33;100120.03;5033412;28;20053;-64
2021/08/22 02:39:43;;;;;;;8.73;6.43;;;;;;;19.97;76.57;100120.78;5033479;28;20056;-64
2021/08/22 02:42:11;;;;;;;6.75;6.05;;;;;;;19.99;76.57;100118.41;5034216;28;20072;-65
2021/08/22 02:44:38;;;;;;;6.80;6.10;;;;;;;19.98;76.32;100119.63;5033551;28;20072;-65
2021/08/22 02:47:05;;;;;;;6.85;5.60;;;;;;;19.90;76.05;100113.06;5033656;28;20050;-65
2021/08/22 02:49:33;;;;;;;9.32;6.28;;;;;;;19.87;75.65;100119.50;5033722;28;20062;-65
2021/08/22 02:52:00;;;;;;;8.27;5.65;;;;;;;19.79;75.59;100112.94;5033862;28;20061;-65
2021/08/22 02:54:28;;;;;;;6.18;5.38;;;;;;;19.75;75.74;100114.91;5033460;28;20501;-65
2021/08/22 02:56:56;;;;;;;8.13;6.03;;;;;;;19.75;75.56;100114.91;5033516;28;20057;-65
2021/08/22 02:59:24;;;;;;;7.28;5.38;;;;;;;19.57;76.47;100106.19;5033477;28;20057;-65
2021/08/22 03:01:51;;;;;;;6.63;5.22;;;;;;;19.58;75.88;100105.00;5018554;28;20049;-65
2021/08/22 03:04:18;;;;;;;6.43;5.30;;;;;;;19.54;75.92;100101.31;5019724;28;20053;-65
2021/08/22 03:06:46;;;;;;;6.35;5.47;;;;;;;19.51;76.02;100102.09;5033450;28;20060;-65
2021/08/22 03:09:13;;;;;;;6.88;5.35;;;;;;;19.44;76.18;100101.97;5032707;28;20510;-65
2021/08/22 03:11:40;;;;;;;5.78;5.18;;;;;;;19.39;76.14;100105.16;5033460;28;20046;-65
2021/08/22 03:14:09;;;;;;;6.68;5.00;;;;;;;19.34;76.02;100103.50;5033445;28;20417;-65
2021/08/22 03:16:37;;;;;;;6.10;5.22;;;;;;;19.25;76.17;100091.66;5033222;28;20053;-65
2021/08/22 03:19:04;;;;;;;5.55;4.65;;;;;;;19.25;76.04;100102.94;5033581;28;20054;-65
2021/08/22 03:21:33;;;;;;;6.15;4.93;;;;;;;19.14;76.34;100088.69;5033449;28;20049;-65
2021/08/22 03:24:03;;;;;;;5.85;4.93;;;;;;;19.05;76.57;100097.44;5032850;28;20053;-65
2021/08/22 03:26:30;;;;;;;5.63;4.80;;;;;;;19.07;76.77;100099.88;5033037;28;20045;-65
2021/08/22 03:28:57;;;;;;;5.72;4.65;;;;;;;19.08;76.56;100103.50;5035034;28;20067;-65
2021/08/22 03:31:26;;;;;;;5.35;4.65;;;;;;;19.06;77.02;100104.69;5037202;28;20060;-65
2021/08/22 03:33:53;;;;;;;6.40;5.05;;;;;;;19.12;77.38;100096.72;5037256;28;20057;-65
2021/08/22 03:36:21;;;;;;;7.03;5.60;;;;;;;19.19;77.18;100096.00;5037270;28;20054;-65
2021/08/22 03:38:48;;;;;;;6.75;5.15;;;;;;;19.24;77.13;100099.31;5036990;28;20049;-65
2021/08/22 03:41:16;;;;;;;5.93;5.32;;;;;;;19.29;77.07;100103.81;5036339;28;20064;-65
2021/08/22 03:43:43;;;;;;;7.13;5.68;;;;;;;19.37;77.24;100101.91;5037035;28;20060;-65
2021/08/22 03:46:11;;;;;;;6.63;5.80;;;;;;;19.42;77.32;100110.84;5037084;28;20056;-65
2021/08/22 03:48:39;;;;;;;6.85;5.75;;;;;;;19.46;77.22;100103.25;5036562;28;20064;-65
2021/08/22 03:51:07;;;;;;;7.25;5.45;;;;;;;19.52;76.89;100102.91;5036664;28;20057;-65
2021/08/22 03:53:34;;;;;;;7.25;5.28;;;;;;;19.57;76.66;100102.53;5036181;28;20379;-65
2021/08/22 03:56:01;;;;;;;6.05;5.35;;;;;;;19.52;76.30;100098.06;5036762;28;20068;-65
2021/08/22 03:58:29;;;;;;;6.10;5.50;;;;;;;19.63;75.81;100098.19;5036513;28;20482;-65
2021/08/22 04:00:56;;;;;;;7.53;6.50;;;;;;;19.56;75.88;100101.72;5036502;28;20410;-65
2021/08/22 04:03:23;;;;;;;12.13;7.78;;;;;;;19.63;75.72;100098.19;5036833;28;20072;-65
2021/08/22 04:05:52;;;;;;;8.68;7.78;;;;;;;19.67;75.63;100099.88;5017995;28;20046;-65
2021/08/22 04:08:24;;;;;;;11.52;9.75;;;;;;;19.78;75.35;100104.84;5020717;28;20057;-65
2021/08/22 04:10:55;;;;;;;11.73;10.52;;;;;;;19.65;75.63;100101.44;5036182;28;20057;-65
2021/08/22 04:13:22;;;;;;;13.90;12.50;;;;;;;19.65;75.86;100092.94;5035897;28;20065;-65
2021/08/22 04:15:50;;;;;;;14.52;12.95;;;;;;;19.70;76.01;100089.84;5036045;28;20494;-65
2021/08/22 04:18:17;;;;;;;16.10;13.82;;;;;;;19.56;76.88;100098.09;5035810;28;20418;-65
2021/08/22 04:20:45;;;;;;;16.50;14.80;;;;;;;19.61;76.47;100092.09;5036433;28;20057;-65
2021/08/22 04:23:14;;;;;;;17.67;14.50;;;;;;;19.70;76.74;100091.78;5035771;28;20053;-65
2021/08/22 04:25:42;;;;;;;18.05;15.02;;;;;;;19.66;77.04;100095.41;5035556;28;20057;-65
2021/08/22 04:28:09;;;;;;;16.40;14.65;;;;;;;19.71;76.62;100094.28;5036488;28;20060;-65
2021/08/22 04:30:37;;;;;;;18.95;15.95;;;;;;;19.70;76.84;100094.63;5036096;28;20064;-65
2021/08/22 04:33:04;;;;;;;17.10;15.30;;;;;;;19.65;76.75;100095.78;5035667;28;20049;-65
2021/08/22 04:35:32;;;;;;;17.35;14.85;;;;;;;19.78;76.63;100094.38;5035865;28;20057;-65
2021/08/22 04:37:59;;;;;;;16.95;15.15;;;;;;;19.78;76.29;100094.38;5035494;28;20049;-65
2021/08/22 04:40:28;;;;;;;17.40;15.18;;;;;;;19.86;76.25;100098.91;5035049;28;20057;-65
2021/08/22 04:42:56;;;;;;;17.20;15.32;;;;;;;19.82;76.27;100105.69;5035999;28;20426;-65
2021/08/22 04:45:24;;;;;;;16.48;14.68;;;;;;;19.84;76.39;100103.28;5035842;28;20049;-65
2021/08/22 04:47:52;;;;;;;16.98;15.25;;;;;;;19.85;75.99;100107.75;5035247;28;20045;-65
2021/08/22 04:50:19;;;;;;;16.05;14.50;;;;;;;19.94;75.94;100102.59;5035694;28;20060;-65
2021/08/22 04:52:46;;;;;;;15.25;13.75;;;;;;;19.94;75.49;100102.59;5035618;28;20049;-65
2021/08/22 04:55:14;;;;;;;14.38;12.98;;;;;;;19.80;75.77;100108.94;5034792;28;20056;-65
2021/08/22 04:57:43;;;;;;;16.52;14.70;;;;;;;19.77;75.68;100118.16;5035224;28;20068;-65
2021/08/22 05:00:12;;;;;;;15.55;13.70;;;;;;;19.64;76.06;100106.28;5035821;28;20053;-65
2021/08/22 05:02:39;;;;;;;14.98;13.48;;;;;;;19.66;76.09;100117.19;5035134;28;20064;-65
2021/08/22 05:05:07;;;;;;;13.60;12.20;;;;;;;19.84;75.29;100123.91;5034694;28;20049;-65
2021/08/22 05:07:35;;;;;;;13.93;12.52;;;;;;;19.91;75.15;100126.00;5035308;28;20387;-65
2021/08/22 05:10:02;;;;;;;13.85;12.48;;;;;;;20.02;74.61;100128.94;5034680;28;20395;-65
2021/08/22 05:12:30;;;;;;;13.27;11.88;;;;;;;19.96;74.63;100133.31;5035328;28;20483;-65
2021/08/22 05:14:58;;;;;;;13.35;12.05;;;;;;;19.85;75.41;100131.19;5035186;28;20411;-65
2021/08/22 05:17:26;;;;;;;13.02;11.73;;;;;;;20.03;74.18;100144.69;5034579;28;20483;-65
2021/08/22 05:19:53;;;;;;;14.23;12.00;;;;;;;19.92;74.78;100143.78;5034621;28;20525;-65
2021/08/22 05:22:21;;;;;;;12.48;11.18;;;;;;;19.97;74.49;100134.94;5035231;28;20463;-65
2021/08/22 05:24:48;;;;;;;12.48;10.88;;;;;;;20.07;74.35;100142.72;5034260;28;20053;-64
2021/08/22 05:27:15;;;;;;;11.70;10.30;;;;;;;20.05;74.25;100143.13;5034907;28;20057;-65
2021/08/22 05:29:42;;;;;;;12.60;11.27;;;;;;;20.07;73.61;100145.53;5034827;28;20057;-65
2021/08/22 05:32:11;;;;;;;11.05;9.95;;;;;;;20.11;73.72;100145.59;5035049;28;20058;-65
2021/08/22 05:34:38;;;;;;;11.68;10.57;;;;;;;20.12;73.69;100148.03;5034579;28;20057;-65
2021/08/22 05:37:06;;;;;;;12.00;10.80;;;;;;;20.19;73.34;100148.09;5034676;28;20383;-65
2021/08/22 05:39:33;;;;;;;12.15;10.50;;;;;;;20.21;73.37;100150.56;5034414;28;20053;-64
2021/08/22 05:42:01;;;;;;;11.70;10.50;;;;;;;20.22;73.45;100150.19;5034552;28;20065;-64
2021/08/22 05:44:28;;;;;;;13.13;10.98;;;;;;;20.25;73.31;100160.69;5034379;28;20413;-65
2021/08/22 05:46:55;;;;;;;11.60;10.48;;;;;;;20.38;72.67;100157.59;5034273;28;20053;-64
2021/08/22 05:49:24;;;;;;;12.40;11.15;;;;;;;20.34;72.25;100151.09;5034538;28;20049;-66
2021/08/22 05:51:52;;;;;;;11.65;10.60;;;;;;;20.38;72.38;100154.75;5033212;28;20065;-65
2021/08/22 05:54:19;;;;;;;11.43;10.43;;;;;;;20.32;72.55;100157.13;5033968;28;20055;-65
2021/08/22 05:56:46;;;;;;;11.85;10.70;;;;;;;20.33;71.84;100163.63;5034060;28;20061;-65
2021/08/22 05:59:13;;;;;;;11.50;10.43;;;;;;;20.29;71.74;100163.56;5034168;28;20064;-66
2021/08/22 06:01:41;;;;;;;11.13;10.02;;;;;;;20.35;71.09;100169.66;5034098;28;20061;-64
2021/08/22 06:04:08;;;;;;;10.98;9.88;;;;;;;20.42;70.86;100161.28;5034306;28;20056;-65
2021/08/22 06:06:39;;;;;;;10.18;9.18;;;;;;;20.59;70.55;100169.13;5034099;28;20490;-64
2021/08/22 06:09:07;;;;;;;10.23;9.23;;;;;;;20.57;69.92;100170.72;5018586;28;20057;-66
2021/08/22 06:11:34;;;;;;;9.65;8.73;;;;;;;20.66;70.15;100172.06;5014729;28;20521;-65
2021/08/22 06:14:01;;;;;;;9.88;8.75;;;;;;;20.53;70.62;100170.66;5014170;28;20072;-64
2021/08/22 06:16:29;;;;;;;9.30;8.32;;;;;;;20.64;70.40;100177.28;5014519;28;20063;-65
2021/08/22 06:18:58;;;;;;;8.98;8.07;;;;;;;20.69;69.73;100178.94;5013922;28;20407;-65
2021/08/22 06:21:26;;;;;;;9.23;8.05;;;;;;;20.63;69.42;100178.47;5014105;28;20058;-66
2021/08/22 06:23:57;;;;;;;8.60;7.75;;;;;;;20.58;69.88;100184.50;5024004;28;20057;-64
2021/08/22 06:26:26;;;;;;;8.40;7.60;;;;;;;20.70;69.50;100189.03;5034139;28;20064;-65
2021/08/22 06:28:53;;;;;;;8.17;7.37;;;;;;;20.88;68.90;100184.34;5033883;28;20057;-65
2021/08/22 06:31:21;;;;;;;7.72;7.00;;;;;;;21.12;68.43;100187.75;5033792;28;20476;-65
2021/08/22 06:33:49;;;;;;;8.38;7.50;;;;;;;21.15;67.41;100181.31;5034064;28;20058;-65
2021/08/22 06:36:17;;;;;;;8.00;7.03;;;;;;;21.35;66.12;100187.50;5034128;28;20064;-65
2021/08/22 06:38:44;;;;;;;8.07;6.93;;;;;;;21.45;66.39;100189.63;5026135;28;20483;-64
2021/08/22 06:41:13;;;;;;;7.65;6.80;;;;;;;21.56;65.71;100191.72;5026920;28;20052;-64
2021/08/22 06:43:41;;;;;;;8.10;6.72;;;;;;;21.56;65.29;100189.69;5013588;28;20073;-64
2021/08/22 06:46:09;;;;;;;7.82;6.53;;;;;;;21.51;65.90;100192.09;5013999;28;20383;-63
2021/08/22 06:48:37;;;;;;;7.07;6.38;;;;;;;21.66;64.69;100194.59;5013802;28;20050;-65
2021/08/22 06:51:04;;;;;;;8.05;6.65;;;;;;;21.82;64.65;100199.16;5014103;28;20064;-65
2021/08/22 06:53:31;;;;;;;8.90;7.50;;;;;;;21.72;64.11;100185.75;5013997;28;20483;-65
2021/08/22 06:55:59;;;;;;;9.00;6.88;;;;;;;21.73;64.05;100191.00;5022308;28;20363;-64
2021/08/22 06:58:30;;;;;;;7.22;6.53;;;;;;;21.76;63.97;100193.06;5027952;28;20136;-64
2021/08/22 07:00:58;;;;;;;8.95;6.57;;;;;;;21.89;64.16;100202.81;5032721;28;20080;-64
2021/08/22 07:03:25;;;;;;;7.93;7.13;;;;;;;21.74;63.77;100192.63;5020100;28;20414;-64
2021/08/22 07:05:53;;;;;;;9.82;7.80;;;;;;;21.74;64.10;100195.47;5014692;28;20057;-64
2021/08/22 07:08:20;;;;;;;8.95;7.80;;;;;;;21.62;64.75;100198.63;5023562;28;20069;-65
2021/08/22 07:10:47;;;;;;;8.38;7.05;;;;;;;21.73;64.38;100199.50;5033367;28;20058;-65
2021/08/22 07:13:17;;;;;;;9.35;8.32;;;;;;;21.60;64.60;100206.72;5033134;28;20483;-65
2021/08/22 07:15:45;;;;;;;8.82;7.93;;;;;;;21.60;64.82;100198.22;5032862;28;20053;-65
2021/08/22 07:18:13;;;;;;;9.45;8.45;;;;;;;21.53;64.75;100207.50;5033073;28;20505;-65
2021/08/22 07:20:40;;;;;;;10.20;8.27;;;;;;;21.74;63.95;100217.34;5044990;28;20056;-65
2021/08/22 07:23:10;;;;;;;8.68;7.82;;;;;;;21.67;63.25;100210.44;5053526;28;20417;-64
2021/08/22 07:25:37;;;;;;;9.85;8.85;;;;;;;21.66;63.84;100211.63;5031867;28;20061;-64
2021/08/22 07:28:05;;;;;;;9.50;8.20;;;;;;;21.67;62.70;100218.09;5033337;28;20491;-64
2021/08/22 07:30:32;;;;;;;8.75;7.60;;;;;;;22.12;61.04;100212.25;5032825;28;20394;-65
2021/08/22 07:33:03;;;;;;;9.43;7.97;;;;;;;22.35;59.49;100214.78;5032998;28;20065;-64
2021/08/22 07:35:30;;;;;;;8.55;7.60;;;;;;;23.18;57.83;100213.66;5032951;28;20053;-64
2021/08/22 07:37:58;;;;;;;7.95;6.88;;;;;;;23.76;55.89;100205.00;5032620;28;20053;-65
2021/08/22 07:40:25;;;;;;;7.18;6.43;;;;;;;23.66;56.50;100203.81;5031539;28;20065;-64
2021/08/22 07:42:52;;;;;;;7.93;7.03;;;;;;;23.93;55.58;100209.03;5030635;28;20057;-65
2021/08/22 07:45:19;;;;;;;10.40;6.78;;;;;;;23.67;54.19;100211.94;5021829;28;20053;-66
2021/08/22 07:47:47;;;;;;;8.18;6.35;;;;;;;23.24;56.07;100214.06;5033060;28;20052;-66
2021/08/22 07:50:16;;;;;;;7.35;6.50;;;;;;;23.05;56.64;100218.13;5033013;28;20420;-64
2021/08/22 07:52:43;;;;;;;8.90;6.55;;;;;;;22.89;56.32;100219.31;5032961;28;20053;-64
2021/08/22 07:55:13;;;;;;;10.57;8.35;;;;;;;22.36;58.09;100225.69;5032589;28;20060;-65
2021/08/22 07:57:40;;;;;;;9.13;6.97;;;;;;;22.54;58.07;100225.75;5032956;28;20065;-65
2021/08/22 08:00:08;;;;;;;10.25;6.28;;;;;;;22.63;58.48;100226.16;5032745;28;20056;-63
2021/08/22 08:02:36;;;;;;;8.93;7.13;;;;;;;22.60;58.12;100226.19;5032732;28;20053;-65
2021/08/22 08:05:03;;;;;;;8.32;6.57;;;;;;;22.73;57.79;100226.59;5032886;28;20053;-65
2021/08/22 08:07:32;;;;;;;8.05;6.32;;;;;;;22.59;57.98;100231.03;5032463;28;20052;-64
2021/08/22 08:10:00;;;;;;;9.68;7.10;;;;;;;23.04;56.68;100237.19;5032392;28;20061;-65
2021/08/22 08:12:28;;;;;;;8.80;7.57;;;;;;;22.89;57.73;100236.34;5031820;28;20057;-65
2021/08/22 08:14:57;;;;;;;9.18;7.43;;;;;;;22.94;57.24;100234.34;5032498;28;20053;-64
2021/08/22 08:17:24;;;;;;;9.85;8.45;;;;;;;23.08;57.26;100220.97;5036311;28;20053;-66
2021/08/22 08:19:52;;;;;;;8.45;7.10;;;;;;;23.27;56.25;100230.31;5035497;28;20053;-65
2021/08/22 08:22:19;;;;;;;9.73;7.55;;;;;;;23.45;55.90;100225.38;5036195;28;20391;-64
2021/08/22 08:24:48;;;;;;;7.15;6.32;;;;;;;23.81;54.62;100236.72;5035466;28;20045;-65
2021/08/22 08:27:15;;;;;;;8.88;7.22;;;;;;;23.61;54.98;100235.53;5036049;28;20364;-65
2021/08/22 08:29:43;;;;;;;9.13;7.70;;;;;;;23.58;55.13;100237.16;5035931;28;20057;-65
2021/08/22 08:32:10;;;;;;;7.93;7.10;;;;;;;23.93;53.61;100248.88;5035349;28;20054;-64
2021/08/22 08:34:38;;;;;;;8.30;7.00;;;;;;;24.03;53.96;100243.13;5032743;28;20052;-65
2021/08/22 08:37:05;;;;;;;7.75;7.03;;;;;;;23.89;53.56;100254.56;5019681;28;20049;-65
2021/08/22 08:39:32;;;;;;;7.45;6.70;;;;;;;22.52;57.05;100262.25;5046867;28;20049;-49
2021/08/22 08:42:16;;;;;;;8.30;6.85;;;;;;;22.02;58.33;100268.50;5022724;28;20509;-52
2021/08/22 08:44:47;;;;;;;8.18;7.05;;;;;;;22.43;58.27;100268.31;5026384;28;20058;-49
2021/08/22 08:47:15;;;;;;;8.32;7.13;;;;;;;22.33;58.65;100257.72;5024789;28;20695;-48
2021/08/22 08:49:47;;;;;;;8.68;7.30;;;;;;;22.53;58.40;100258.19;5022404;28;20049;-48
2021/08/22 08:52:20;;;;;;;9.00;6.72;;;;;;;23.13;56.33;100270.09;5036583;28;20065;-50
2021/08/22 08:54:48;;;;;;;7.10;6.40;;;;;;;23.40;55.04;100265.59;5034480;28;20050;-49
2021/08/22 08:57:17;;;;;;;6.82;5.97;;;;;;;23.70;54.38;100267.19;5016023;28;20046;-48
2021/08/22 08:59:45;;;;;;;8.45;5.93;;;;;;;23.82;53.22;100257.44;5043336;28;20053;-47
2021/08/22 09:02:15;;;;;;;6.10;5.50;;;;;;;24.10;51.70;100262.22;5024378;28;20383;-48
2021/08/22 09:04:46;;;;;;;6.35;5.65;;;;;;;23.27;55.23;100264.41;5034234;28;20399;-49
2021/08/22 09:07:58;;;;;;;6.50;5.13;;;;;;;23.50;54.03;100258.28;5015836;28;20050;-50
2021/08/22 09:11:05;;;;;;;5.90;5.20;;;;;;;23.51;54.41;100257.88;4974380;28;20054;-49
2021/08/22 09:14:18;;;;;;;5.32;4.53;;;;;;;23.68;53.57;100255.41;5018511;28;20049;-65
2021/08/22 09:17:22;;;;;;;4.55;3.90;;;;;;;23.54;53.54;100258.28;5041770;28;20048;-65
2021/08/22 09:20:24;;;;;;;4.88;4.00;;;;;;;23.25;54.32;100264.00;5028462;28;20057;-65
2021/08/22 09:23:42;;;;;;;5.03;4.40;;;;;;;23.42;53.60;100257.47;5015229;28;20380;-66
2021/08/22 09:26:48;;;;;;;5.28;4.18;;;;;;;23.23;55.00;100267.25;5018021;28;20064;-65
2021/08/22 09:29:49;;;;;;;5.72;4.22;;;;;;;22.97;56.22;100259.06;5003461;28;20376;-66
2021/08/22 09:32:55;;;;;;;4.95;3.75;;;;;;;23.20;55.66;100264.38;5014308;28;20053;-65
2021/08/22 09:36:13;;;;;;;6.78;5.05;;;;;;;23.29;55.20;100264.81;5019966;28;20053;-66
2021/08/22 09:39:26;;;;;;;4.97;4.18;;;;;;;23.85;53.74;100248.06;4977963;28;20050;-64
2021/08/22 09:42:30;;;;;;;5.50;5.00;;;;;;;24.26;52.83;100238.97;4991865;28;20073;-65
2021/08/22 09:45:34;;;;;;;5.35;4.85;;;;;;;24.46;51.34;100248.63;5014637;28;20050;-65
2021/08/22 09:48:55;;;;;;;5.28;4.50;;;;;;;24.53;51.99;100239.28;5015011;28;20050;-66
2021/08/22 09:52:00;;;;;;;7.57;5.82;;;;;;;24.66;51.44;100236.75;5024714;28;20053;-63
2021/08/22 09:55:18;;;;;;;6.57;5.45;;;;;;;24.48;51.56;100245.34;5033728;28;20517;-64
2021/08/22 09:58:04;;;;;;;;;;;;;;;24.71;51.70;100247.69;5034472;28;20056;-64
2021/08/22 10:01:14;;;;;;;6.82;6.15;;;;;;;24.22;52.37;100247.53;5033882;28;19921;-65
2021/08/22 10:04:26;;;;;;;6.57;5.80;;;;;;;23.98;52.97;100252.13;5033799;28;20053;-65
2021/08/22 10:06:58;;;;;;;6.75;6.07;;;;;;;23.76;53.97;100248.50;4979212;28;20056;-65
2021/08/22 10:09:26;;;;;;;7.57;6.88;;;;;;;23.85;53.59;100240.34;5014366;28;20057;-65
2021/08/22 10:11:56;;;;;;;7.15;6.45;;;;;;;23.71;54.42;100235.50;5013994;28;20049;-66
2021/08/22 10:14:26;;;;;;;7.22;6.60;;;;;;;23.68;54.66;100235.50;5013557;28;20072;-65
2021/08/22 10:16:55;;;;;;;8.00;7.20;;;;;;;23.51;54.97;100240.00;5013518;28;20045;-65
2021/08/22 10:19:28;;;;;;;8.18;7.47;;;;;;;23.75;54.90;100234.66;5013765;28;20054;-64
2021/08/22 10:22:20;;;;;;;8.43;7.63;;;;;;;23.66;54.42;100235.91;5032891;28;20064;-64
2021/08/22 10:24:49;;;;;;;9.80;7.13;;;;;;;24.08;54.00;100237.00;5029004;28;20417;-65
2021/08/22 10:27:49;;;;;;;7.55;6.85;;;;;;;23.23;55.48;100227.47;5033258;28;20060;-65
2021/08/22 10:30:18;;;;;;;6.70;6.10;;;;;;;23.67;54.20;100233.88;4991733;28;20058;-64
2021/08/22 10:33:09;;;;;;;6.47;5.72;;;;;;;23.99;53.76;100222.44;5025297;28;20482;-66
2021/08/22 10:35:37;;;;;;;6.68;5.95;;;;;;;23.98;54.03;100225.66;5033301;28;20053;-64
2021/08/22 10:38:27;;;;;;;6.22;5.63;;;;;;;24.00;53.19;100223.22;5032127;28;20049;-64
2021/08/22 10:40:56;;;;;;;6.38;5.78;;;;;;;23.79;54.19;100224.94;5033149;28;20072;-64
2021/08/22 10:43:40;;;;;;;6.47;5.88;;;;;;;23.81;54.67;100222.50;5033598;28;20054;-66
2021/08/22 10:46:08;;;;;;;7.32;5.50;;;;;;;23.93;54.69;100217.56;5033375;28;20064;-64
2021/08/22 10:48:51;;;;;;;6.93;6.00;;;;;;;23.96;53.35;100220.41;5033032;28;20050;-64
2021/08/22 10:51:19;;;;;;;6.72;6.03;;;;;;;23.94;53.81;100220.00;5033150;28;20116;-66
2021/08/22 10:53:51;;;;;;;6.35;5.75;;;;;;;23.99;53.81;100216.72;5032326;28;20402;-63
2021/08/22 10:56:45;;;;;;;7.25;6.55;;;;;;;23.36;56.12;100216.47;5032836;28;20478;-64
2021/08/22 10:59:12;;;;;;;6.60;5.82;;;;;;;23.57;55.47;100217.66;4985726;28;20148;-63
2021/08/22 11:01:42;;;;;;;6.95;5.80;;;;;;;24.16;54.41;100205.69;5033554;28;20061;-64
2021/08/22 11:04:15;;;;;;;7.35;6.57;;;;;;;24.33;52.52;100206.81;5028435;28;20050;-64
2021/08/22 11:07:01;;;;;;;6.70;6.10;;;;;;;24.73;51.11;100208.19;5014745;28;20475;-66
2021/08/22 11:09:41;;;;;;;7.10;6.40;;;;;;;25.55;50.33;100191.63;5030354;28;20475;-65
2021/08/22 11:12:28;;;;;;;7.45;6.75;;;;;;;26.02;49.95;100191.91;5033529;28;20056;-65
2021/08/22 11:14:58;;;;;;;7.78;6.97;;;;;;;25.85;49.51;100196.56;5032957;28;20054;-65
2021/08/22 11:17:26;;;;;;;8.25;7.45;;;;;;;25.77;49.12;100201.56;5033481;28;20422;-65
2021/08/22 11:20:07;;;;;;;8.05;6.70;;;;;;;25.48;49.33;100196.16;5033298;28;20430;-65
2021/08/22 11:22:35;;;;;;;8.18;7.47;;;;;;;25.30;50.03;100195.53;5028227;28;20053;-66
2021/08/22 11:25:03;;;;;;;8.15;7.00;;;;;;;25.38;49.62;100191.38;5031720;28;20052;-65
2021/08/22 11:27:31;;;;;;;8.27;7.22;;;;;;;25.20;50.36;100190.72;5045239;28;20054;-64
2021/08/22 11:30:01;;;;;;;7.65;6.88;;;;;;;25.23;49.21;100192.75;5039819;28;20053;-65
2021/08/22 11:32:29;;;;;;;8.10;7.18;;;;;;;25.24;49.94;100197.22;5035185;28;20061;-65
2021/08/22 11:35:12;;;;;;;7.87;7.07;;;;;;;25.06;50.05;100198.16;5015619;28;20384;-64
2021/08/22 11:37:40;;;;;;;7.43;6.60;;;;;;;25.72;48.75;100187.75;5013114;28;20448;-65
2021/08/22 11:40:09;;;;;;;8.25;7.40;;;;;;;25.97;48.46;100189.53;5031718;28;20048;-64
2021/08/22 11:42:37;;;;;;;6.20;5.65;;;;;;;27.78;44.38;100184.13;5035459;28;20057;-64